East Rockland Key, Florida
Current Conditions -  °F | °C
As of 4:53 AM on Saturday 20 Dec 2014 (Local Time) from KNQX Reporting Station
Scattered Clouds Scattered Clouds  
Wind Chill: 71°   Ceiling: Unl
Heat Index: 71°   Visibility: 10mi
Dew Point: 64°   Wind: 8mph
Humidity: 78%   Direction: 130°SE
Pressure: 30.02"   Gusts: NA
Location:  24.5796°N, 81.6849°W
Report Text: KNQX 200953Z AUTO 13007KT 10SM SCT031 22/18 A3002 RMK AO2 SLP163 T02170178
Loading
Personal Weather Stations






























Interactive Weather Map New forecast layout! Learn more

10-Day Weather Forecast

Advertisements
Track Severe Weather on mobile